Time;durP1;ratioP1;P1;durP2;ratioP2;P2;SDS_P1;SDS_P2;PMS_P1;PMS_P2;Temp;Humidity;BMP_temperature;BMP_pressure;BME280_temperature;BME280_humidity;BME280_pressure;Samples;Min_cycle;Max_cycle;Signal;HPM_P1;HPM_P2
2023/08/10 00:00:14;;;;;;;4.60;2.10;;;;;;;;;;5112909;28;20030;-71
2023/08/10 00:02:40;;;;;;;4.68;2.30;;;;;;;;;;5094921;28;20030;-71
2023/08/10 00:05:06;;;;;;;7.38;2.63;;;;;;;;;;5113007;28;20114;-72
2023/08/10 00:07:34;;;;;;;3.40;2.35;;;;;;;;;;5112473;28;20035;-72
2023/08/10 00:10:01;;;;;;;5.68;2.63;;;;;;;;;;5113520;28;20043;-72
2023/08/10 00:12:27;;;;;;;4.05;2.00;;;;;;;;;;5110863;28;20024;-71
2023/08/10 00:14:53;;;;;;;2.30;1.98;;;;;;;;;;5113156;28;20103;-71
2023/08/10 00:17:19;;;;;;;5.15;2.75;;;;;;;;;;5094286;28;20043;-72
2023/08/10 00:19:45;;;;;;;3.55;2.30;;;;;;;;;;5112767;28;20027;-71
2023/08/10 00:22:11;;;;;;;5.00;2.08;;;;;;;;;;5113058;28;20076;-72
2023/08/10 00:24:37;;;;;;;5.40;2.20;;;;;;;;;;5093838;28;20020;-71
2023/08/10 00:27:04;;;;;;;6.68;2.38;;;;;;;;;;5112074;28;20032;-71
2023/08/10 00:29:30;;;;;;;6.70;2.90;;;;;;;;;;5094203;28;20075;-72
2023/08/10 00:31:56;;;;;;;3.30;2.70;;;;;;;;;;5112789;28;20035;-72
2023/08/10 00:34:22;;;;;;;6.53;2.90;;;;;;;;;;5113146;28;20094;-72
2023/08/10 00:36:48;;;;;;;6.43;2.75;;;;;;;;;;5112837;28;20164;-72
2023/08/10 00:39:14;;;;;;;10.98;2.88;;;;;;;;;;5112892;28;20079;-72
2023/08/10 00:41:41;;;;;;;7.63;2.80;;;;;;;;;;5094820;28;20183;-72
2023/08/10 00:44:07;;;;;;;3.20;2.25;;;;;;;;;;5112851;28;20106;-72
2023/08/10 00:46:33;;;;;;;3.40;2.50;;;;;;;;;;5094681;28;20042;-73
2023/08/10 00:49:00;;;;;;;5.03;2.92;;;;;;;;;;5093829;28;20447;-72
2023/08/10 00:51:26;;;;;;;7.72;2.92;;;;;;;;;;5112852;28;20448;-72
2023/08/10 00:53:52;;;;;;;4.93;2.60;;;;;;;;;;5112753;28;20024;-72
2023/08/10 00:56:18;;;;;;;6.55;2.53;;;;;;;;;;5112066;28;20042;-72
2023/08/10 00:58:45;;;;;;;4.88;2.85;;;;;;;;;;5111131;28;20035;-72
2023/08/10 01:01:11;;;;;;;3.70;2.88;;;;;;;;;;5112081;28;20098;-71
2023/08/10 01:03:37;;;;;;;9.25;3.05;;;;;;;;;;5112072;28;20082;-71
2023/08/10 01:06:12;;;;;;;4.70;2.53;;;;;;;;;;5111919;28;20386;-71
2023/08/10 01:08:38;;;;;;;4.75;2.97;;;;;;;;;;5111069;28;20069;-72
2023/08/10 01:11:04;;;;;;;3.50;2.10;;;;;;;;;;5090937;28;20080;-72
2023/08/10 01:13:37;;;;;;;4.15;2.42;;;;;;;;;;5091829;28;20024;-71
2023/08/10 01:16:05;;;;;;;3.60;2.28;;;;;;;;;;5091491;28;20027;-72
2023/08/10 01:18:33;;;;;;;5.80;2.63;;;;;;;;;;5090442;28;20028;-71
2023/08/10 01:20:59;;;;;;;4.15;2.00;;;;;;;;;;5091426;28;20109;-72
2023/08/10 01:23:36;;;;;;;6.93;2.92;;;;;;;;;;5073388;28;20558;-71
2023/08/10 01:26:02;;;;;;;4.00;2.15;;;;;;;;;;5091385;28;20032;-72
2023/08/10 01:28:29;;;;;;;2.90;1.83;;;;;;;;;;5090584;28;20028;-71
2023/08/10 01:30:55;;;;;;;6.78;2.03;;;;;;;;;;5091243;28;20387;-72
2023/08/10 01:33:21;;;;;;;9.48;2.30;;;;;;;;;;5091261;28;20491;-71
2023/08/10 01:35:47;;;;;;;3.58;2.17;;;;;;;;;;5091173;28;20025;-72
2023/08/10 01:38:13;;;;;;;4.22;2.65;;;;;;;;;;5072142;28;20021;-71
2023/08/10 01:40:39;;;;;;;4.35;2.30;;;;;;;;;;5090969;28;20028;-71
2023/08/10 01:43:06;;;;;;;2.65;2.00;;;;;;;;;;5090915;28;20050;-74
2023/08/10 01:45:32;;;;;;;3.60;2.17;;;;;;;;;;5091121;28;20491;-73
2023/08/10 01:48:14;;;;;;;3.53;2.22;;;;;;;;;;5071891;28;20118;-72
2023/08/10 01:50:41;;;;;;;4.97;2.42;;;;;;;;;;5072528;28;20180;-72
2023/08/10 01:53:09;;;;;;;3.53;1.92;;;;;;;;;;5090720;28;20024;-73
2023/08/10 01:55:35;;;;;;;8.23;2.30;;;;;;;;;;5090834;28;20387;-71
2023/08/10 01:58:01;;;;;;;5.30;2.03;;;;;;;;;;5089915;28;20479;-71
2023/08/10 02:00:27;;;;;;;3.42;1.90;;;;;;;;;;5072628;28;20032;-72
2023/08/10 02:02:53;;;;;;;6.03;1.90;;;;;;;;;;5090875;28;20035;-71
2023/08/10 02:05:19;;;;;;;8.77;1.92;;;;;;;;;;5090623;28;20020;-71
2023/08/10 02:07:48;;;;;;;6.45;2.83;;;;;;;;;;5090002;28;20035;-72
2023/08/10 02:10:14;;;;;;;5.22;2.22;;;;;;;;;;5127294;22;20044;-75
2023/08/10 02:12:41;;;;;;;8.13;2.28;;;;;;;;;;5111006;28;20024;-74
2023/08/10 02:15:07;;;;;;;2.13;1.90;;;;;;;;;;5092708;28;20026;-74
2023/08/10 02:17:36;;;;;;;8.20;2.20;;;;;;;;;;5091984;28;20035;-74
2023/08/10 02:20:11;;;;;;;5.88;1.98;;;;;;;;;;5110803;28;20024;-74
2023/08/10 02:22:37;;;;;;;2.40;1.52;;;;;;;;;;5092737;28;20019;-72
2023/08/10 02:25:03;;;;;;;4.63;1.92;;;;;;;;;;5111044;28;20524;-74
2023/08/10 02:27:29;;;;;;;3.72;2.10;;;;;;;;;;5110409;28;20429;-74
2023/08/10 02:29:55;;;;;;;6.05;2.05;;;;;;;;;;5112378;28;20103;-74
2023/08/10 02:32:21;;;;;;;3.72;2.05;;;;;;;;;;5099177;28;20471;-74
2023/08/10 02:34:47;;;;;;;3.88;1.90;;;;;;;;;;5102497;28;20020;-74
2023/08/10 02:37:13;;;;;;;4.00;1.73;;;;;;;;;;5122020;28;20439;-75
2023/08/10 02:39:39;;;;;;;8.48;2.30;;;;;;;;;;5119715;28;20475;-74
2023/08/10 02:42:05;;;;;;;3.13;2.10;;;;;;;;;;5121077;28;20027;-74
2023/08/10 02:44:31;;;;;;;4.55;2.08;;;;;;;;;;5122286;28;20024;-74
2023/08/10 02:46:57;;;;;;;2.95;1.90;;;;;;;;;;5121201;28;20066;-74
2023/08/10 02:49:24;;;;;;;5.20;2.53;;;;;;;;;;5100718;28;20035;-74
2023/08/10 02:51:50;;;;;;;2.63;1.92;;;;;;;;;;5115810;28;20479;-74
2023/08/10 02:54:15;;;;;;;3.83;1.65;;;;;;;;;;5096295;28;20111;-74
2023/08/10 02:56:41;;;;;;;3.17;2.13;;;;;;;;;;5114185;28;20024;-74
2023/08/10 02:59:08;;;;;;;3.33;2.05;;;;;;;;;;5113865;28;20080;-73
2023/08/10 03:01:34;;;;;;;3.85;2.15;;;;;;;;;;5114373;28;20076;-74
2023/08/10 03:04:00;;;;;;;5.50;2.15;;;;;;;;;;5114331;28;20024;-74
2023/08/10 03:06:28;;;;;;;4.20;2.13;;;;;;;;;;5114188;28;20451;-74
2023/08/10 03:08:54;;;;;;;3.70;2.30;;;;;;;;;;5113280;28;20020;-73
2023/08/10 03:11:20;;;;;;;2.42;1.90;;;;;;;;;;5114100;28;20397;-74
2023/08/10 03:13:46;;;;;;;5.82;2.53;;;;;;;;;;5114119;28;20022;-73
2023/08/10 03:16:12;;;;;;;6.10;2.25;;;;;;;;;;5113968;28;20157;-74
2023/08/10 03:18:38;;;;;;;4.63;2.08;;;;;;;;;;5094827;28;20069;-74
2023/08/10 03:21:04;;;;;;;3.30;2.25;;;;;;;;;;5113798;28;20027;-74
2023/08/10 03:23:30;;;;;;;3.05;2.05;;;;;;;;;;5113841;28;20024;-74
2023/08/10 03:25:56;;;;;;;5.03;1.88;;;;;;;;;;5113801;28;20030;-74
2023/08/10 03:28:22;;;;;;;7.68;2.17;;;;;;;;;;5112984;28;20402;-73
2023/08/10 03:30:48;;;;;;;7.22;2.30;;;;;;;;;;5095247;28;20106;-74
2023/08/10 03:33:14;;;;;;;2.70;2.10;;;;;;;;;;5113794;28;20058;-74
2023/08/10 03:35:40;;;;;;;7.82;2.28;;;;;;;;;;5113716;28;20024;-74
2023/08/10 03:38:07;;;;;;;3.85;2.00;;;;;;;;;;5112997;28;20028;-74
2023/08/10 03:40:33;;;;;;;3.22;1.95;;;;;;;;;;5113330;28;20031;-73
2023/08/10 03:42:59;;;;;;;5.63;2.50;;;;;;;;;;5113760;28;20027;-74
2023/08/10 03:45:25;;;;;;;2.45;2.20;;;;;;;;;;5113724;28;20034;-74
2023/08/10 03:47:51;;;;;;;6.53;2.72;;;;;;;;;;5112811;28;20075;-74
2023/08/10 03:50:17;;;;;;;5.55;2.38;;;;;;;;;;5113827;28;20106;-74
2023/08/10 03:52:43;;;;;;;5.65;2.72;;;;;;;;;;5114236;28;20038;-75
2023/08/10 03:55:09;;;;;;;3.88;2.67;;;;;;;;;;5113996;28;20551;-74
2023/08/10 03:57:35;;;;;;;3.70;2.17;;;;;;;;;;5113251;28;20019;-74
2023/08/10 04:00:03;;;;;;;2.45;2.22;;;;;;;;;;5114096;28;20051;-75
2023/08/10 04:02:29;;;;;;;9.40;2.45;;;;;;;;;;5114525;28;20443;-74
2023/08/10 04:04:55;;;;;;;12.65;3.00;;;;;;;;;;5115406;28;20053;-74
2023/08/10 04:07:21;;;;;;;4.45;2.50;;;;;;;;;;5114786;28;20123;-74
2023/08/10 04:09:47;;;;;;;3.42;2.00;;;;;;;;;;5117621;28;20036;-74
2023/08/10 04:12:14;;;;;;;5.97;2.13;;;;;;;;;;5124370;28;20050;-74
2023/08/10 04:14:40;;;;;;;3.03;2.60;;;;;;;;;;5126101;28;20023;-73
2023/08/10 04:17:06;;;;;;;4.75;2.50;;;;;;;;;;5115962;28;20034;-73
2023/08/10 04:19:32;;;;;;;3.88;2.10;;;;;;;;;;5115578;28;20099;-73
2023/08/10 04:21:58;;;;;;;6.20;2.25;;;;;;;;;;5118512;28;20016;-74
2023/08/10 04:24:24;;;;;;;3.83;2.30;;;;;;;;;;5113009;28;20060;-74
2023/08/10 04:26:50;;;;;;;5.68;2.35;;;;;;;;;;5112638;28;20023;-74
2023/08/10 04:29:16;;;;;;;5.20;1.77;;;;;;;;;;5112415;28;20035;-73
2023/08/10 04:31:42;;;;;;;3.42;1.70;;;;;;;;;;5112548;28;20027;-74
2023/08/10 04:34:09;;;;;;;2.35;1.58;;;;;;;;;;5112416;28;20011;-74
2023/08/10 04:36:35;;;;;;;3.10;1.85;;;;;;;;;;5112419;28;20019;-73
2023/08/10 04:39:01;;;;;;;4.20;1.67;;;;;;;;;;5093395;28;20031;-74
2023/08/10 04:41:27;;;;;;;5.45;1.42;;;;;;;;;;5093971;28;20483;-74
2023/08/10 04:43:53;;;;;;;4.45;2.03;;;;;;;;;;5112437;28;20057;-75
2023/08/10 04:46:19;;;;;;;7.72;1.70;;;;;;;;;;5112277;28;20028;-74
2023/08/10 04:48:45;;;;;;;2.67;1.80;;;;;;;;;;5111320;28;20028;-74
2023/08/10 04:51:11;;;;;;;3.13;1.70;;;;;;;;;;5112140;28;20030;-74
2023/08/10 04:53:37;;;;;;;5.38;1.50;;;;;;;;;;5111209;28;20054;-74
2023/08/10 04:56:04;;;;;;;5.75;1.35;;;;;;;;;;5112183;28;20031;-74
2023/08/10 04:58:30;;;;;;;2.97;1.42;;;;;;;;;;5111036;28;20023;-73
2023/08/10 05:00:56;;;;;;;3.47;1.48;;;;;;;;;;5093719;28;20376;-74
2023/08/10 05:03:22;;;;;;;2.78;1.42;;;;;;;;;;5093739;28;20028;-74
2023/08/10 05:05:48;;;;;;;1.95;1.20;;;;;;;;;;5112426;28;20024;-74
2023/08/10 05:08:14;;;;;;;5.32;1.40;;;;;;;;;;5111144;28;20031;-75
2023/08/10 05:10:43;;;;;;;3.55;1.10;;;;;;;;;;5113305;28;20081;-74
2023/08/10 05:13:09;;;;;;;6.15;1.40;;;;;;;;;;5117940;28;20019;-74
2023/08/10 05:15:35;;;;;;;3.85;1.65;;;;;;;;;;5118286;28;20034;-74
2023/08/10 05:18:02;;;;;;;9.18;2.30;;;;;;;;;;5120534;28;20089;-75
2023/08/10 05:20:28;;;;;;;7.07;1.50;;;;;;;;;;5121359;28;20562;-73
2023/08/10 05:22:54;;;;;;;4.78;1.50;;;;;;;;;;5119513;28;20026;-75
2023/08/10 05:25:20;;;;;;;3.67;1.52;;;;;;;;;;5117685;28;20023;-73
2023/08/10 05:27:47;;;;;;;2.53;1.20;;;;;;;;;;5111310;28;20028;-73
2023/08/10 05:30:13;;;;;;;8.82;1.95;;;;;;;;;;5111522;28;20173;-74
2023/08/10 05:32:40;;;;;;;6.57;1.67;;;;;;;;;;5111341;28;20019;-74
2023/08/10 05:35:07;;;;;;;2.40;1.35;;;;;;;;;;5112006;28;20672;-73
2023/08/10 05:37:35;;;;;;;1.65;1.10;;;;;;;;;;5110840;28;20024;-73
2023/08/10 05:40:07;;;;;;;7.38;1.48;;;;;;;;;;5111451;28;20068;-74
2023/08/10 05:42:34;;;;;;;2.85;1.50;;;;;;;;;;5111601;28;20022;-73
2023/08/10 05:45:00;;;;;;;3.55;1.38;;;;;;;;;;5111486;28;20356;-74
2023/08/10 05:47:26;;;;;;;5.95;1.20;;;;;;;;;;5110785;28;20026;-73
2023/08/10 05:49:52;;;;;;;3.13;1.40;;;;;;;;;;5095655;28;20026;-74
2023/08/10 05:52:18;;;;;;;5.03;1.30;;;;;;;;;;5111420;28;20030;-74
2023/08/10 05:54:44;;;;;;;3.30;1.25;;;;;;;;;;5111429;28;20016;-75
2023/08/10 05:57:10;;;;;;;2.72;1.50;;;;;;;;;;5110852;28;20077;-74
2023/08/10 05:59:36;;;;;;;2.95;1.60;;;;;;;;;;5111029;28;20035;-73
2023/08/10 06:02:02;;;;;;;3.78;1.40;;;;;;;;;;5111459;28;20032;-74
2023/08/10 06:04:28;;;;;;;6.50;2.10;;;;;;;;;;5094659;28;20340;-73
2023/08/10 06:06:54;;;;;;;3.95;1.60;;;;;;;;;;5096466;28;20024;-73
2023/08/10 06:09:20;;;;;;;3.25;1.50;;;;;;;;;;5115315;28;20030;-73
2023/08/10 06:11:46;;;;;;;2.72;1.30;;;;;;;;;;5115420;28;20051;-75
2023/08/10 06:14:12;;;;;;;3.85;1.30;;;;;;;;;;5115223;28;20068;-74
2023/08/10 06:16:38;;;;;;;2.05;1.27;;;;;;;;;;5115594;28;20027;-73
2023/08/10 06:19:04;;;;;;;6.68;1.60;;;;;;;;;;5114666;28;20035;-74
2023/08/10 06:21:31;;;;;;;3.70;1.45;;;;;;;;;;5115150;28;20023;-73
2023/08/10 06:23:57;;;;;;;3.55;1.48;;;;;;;;;;5115163;28;20023;-73
2023/08/10 06:26:23;;;;;;;3.08;1.45;;;30.40;32.60;;;;;;5115134;28;20031;-74
2023/08/10 06:28:48;;;;;;;3.72;1.10;;;30.60;32.10;;;;;;5114183;28;20024;-74
2023/08/10 06:31:14;;;;;;;2.20;1.15;;;31.20;31.30;;;;;;5114991;28;20023;-74
2023/08/10 06:33:42;;;;;;;2.05;1.35;;;31.30;30.10;;;;;;5115361;28;20139;-74
2023/08/10 06:36:10;;;;;;;2.88;1.35;;;;;;;;;;5114905;28;20121;-74
2023/08/10 06:38:36;;;;;;;3.30;1.48;;;30.50;31.40;;;;;;5095831;28;20114;-73
2023/08/10 06:41:02;;;;;;;2.85;1.17;;;30.00;32.20;;;;;;5114994;28;20119;-74
2023/08/10 06:43:28;;;;;;;3.75;1.17;;;30.60;31.90;;;;;;5115311;28;20027;-74
2023/08/10 06:45:54;;;;;;;4.05;1.15;;;29.80;32.80;;;;;;5115719;28;20024;-74
2023/08/10 06:48:20;;;;;;;5.25;1.55;;;30.30;32.10;;;;;;5115394;28;20113;-74
2023/08/10 06:50:46;;;;;;;3.92;1.73;;;;;;;;;;5096925;28;20371;-74
2023/08/10 06:53:12;;;;;;;3.13;1.38;;;;;;;;;;5114706;28;20036;-74
2023/08/10 06:55:38;;;;;;;10.23;1.70;;;;;;;;;;5114798;28;20024;-73
2023/08/10 06:58:05;;;;;;;7.30;1.98;;;;;;;;;;5113817;28;20031;-73
2023/08/10 07:00:31;;;;;;;6.72;1.77;;;;;;;;;;5114834;28;20055;-73
2023/08/10 07:02:58;;;;;;;4.70;1.45;;;;;;;;;;5114623;28;20066;-73
2023/08/10 07:05:28;;;;;;;4.25;1.58;;;;;;;;;;5114302;28;20490;-73
2023/08/10 07:07:55;;;;;;;4.35;1.70;;;;;;;;;;5114038;28;20051;-73
2023/08/10 07:10:21;;;;;;;3.22;1.40;;;;;;;;;;5114190;28;20042;-73
2023/08/10 07:12:47;;;;;;;3.80;1.40;;;;;;;;;;5114487;28;20475;-74
2023/08/10 07:15:13;;;;;;;4.82;1.85;;;;;;;;;;5095857;28;20493;-76
2023/08/10 07:17:39;;;;;;;5.05;1.50;;;;;;;;;;5095117;28;20027;-75
2023/08/10 07:20:08;;;;;;;6.20;1.40;;;;;;;;;;5114197;28;20107;-74
2023/08/10 07:22:35;;;;;;;3.03;1.67;;;;;;;;;;5111551;28;20015;-73
2023/08/10 07:25:05;;;;;;;5.97;1.65;;;;;;;;;;5114127;28;20043;-75
2023/08/10 07:27:35;;;;;;;2.97;1.17;;;29.90;33.10;;;;;;5113606;28;20119;-74
2023/08/10 07:30:03;;;;;;;5.55;2.10;;;;;;;;;;5095822;28;20322;-76
2023/08/10 07:32:29;;;;;;;8.10;1.67;;;;;;;;;;5095595;28;20024;-74
2023/08/10 07:34:55;;;;;;;3.10;1.38;;;;;;;;;;5114379;28;20028;-75
2023/08/10 07:37:21;;;;;;;6.50;2.05;;;;;;;;;;5114487;28;20024;-74
2023/08/10 07:39:47;;;;;;;2.58;1.88;;;;;;;;;;5115371;28;20031;-74
2023/08/10 07:42:13;;;;;;;3.17;1.42;;;;;;;;;;5102605;28;20133;-74
2023/08/10 07:44:40;;;;;;;3.80;1.70;;;;;;;;;;5121003;28;20046;-74
2023/08/10 07:47:06;;;;;;;3.17;1.35;;;;;;;;;;5101754;28;20072;-74
2023/08/10 07:49:32;;;;;;;5.07;1.77;;;;;;;;;;5121616;28;20027;-74
2023/08/10 07:51:58;;;;;;;3.40;1.55;;;;;;;;;;5123135;28;20020;-74
2023/08/10 07:54:25;;;;;;;3.08;1.63;;;;;;;;;;5124287;28;20020;-74
2023/08/10 07:56:51;;;;;;;11.43;1.80;;;;;;;;;;5107153;28;20038;-74
2023/08/10 07:59:17;;;;;;;3.03;1.58;;;29.40;34.20;;;;;;5123679;28;20019;-74
2023/08/10 08:01:43;;;;;;;4.05;1.48;;;;;;;;;;5122974;28;20023;-74
2023/08/10 08:04:09;;;;;;;3.58;1.33;;;29.00;35.80;;;;;;5117473;28;20447;-74
2023/08/10 08:06:36;;;;;;;3.15;1.60;;;29.20;35.40;;;;;;5113285;28;20023;-74
2023/08/10 08:11:30;;;;;;;3.53;1.52;;;30.60;31.70;;;;;;5068405;28;20048;-74
2023/08/10 08:13:56;;;;;;;4.07;1.45;;;;;;;;;;5072953;28;20111;-73
2023/08/10 08:16:22;;;;;;;4.00;1.60;;;;;;;;;;5070979;28;20074;-74
2023/08/10 08:18:49;;;;;;;3.38;1.88;;;;;;;;;;5071667;28;20051;-74
2023/08/10 08:21:19;;;;;;;6.85;1.95;;;;;;;;;;5090575;28;20127;-74
2023/08/10 08:23:46;;;;;;;6.23;2.53;;;;;;;;;;5090426;28;20123;-73
2023/08/10 08:26:12;;;;;;;3.90;2.08;;;;;;;;;;5092487;28;20263;-74
2023/08/10 08:28:38;;;;;;;4.60;2.33;;;29.20;32.70;;;;;;5090632;28;20024;-74
2023/08/10 08:31:04;;;;;;;6.30;3.22;;;30.10;31.40;;;;;;5092196;28;20104;-74
2023/08/10 08:33:30;;;;;;;6.53;3.30;;;;;;;;;;5092248;28;20024;-75
2023/08/10 08:35:56;;;;;;;7.63;3.08;;;;;;;;;;5090713;28;20093;-74
2023/08/10 08:38:23;;;;;;;8.85;3.17;;;;;;;;;;5091849;28;20040;-74
2023/08/10 08:40:50;;;;;;;5.60;2.58;;;;;;;;;;5091954;28;20028;-73
2023/08/10 08:43:16;;;;;;;5.70;2.45;;;;;;;;;;5090947;28;20208;-74
2023/08/10 08:45:42;;;;;;;5.10;2.47;;;;;;;;;;5092030;28;20607;-74
2023/08/10 08:48:09;;;;;;;3.40;1.60;;;29.60;31.00;;;;;;5091433;28;20024;-73
2023/08/10 08:50:36;;;;;;;1.45;1.02;;;29.80;30.10;;;;;;5092091;28;20024;-73
2023/08/10 08:53:06;;;;;;;2.72;1.10;;;31.20;28.50;;;;;;5090888;28;20024;-74
2023/08/10 08:55:32;;;;;;;1.23;0.75;;;32.50;26.00;;;;;;5092157;28;20098;-74
2023/08/10 08:57:58;;;;;;;2.22;1.08;;;32.80;24.50;;;;;;5091678;28;20107;-73
2023/08/10 09:00:24;;;;;;;2.75;1.10;;;32.60;23.90;;;;;;5091036;28;20036;-74
2023/08/10 09:02:51;;;;;;;1.00;0.90;;;32.40;24.90;;;;;;5087645;28;20035;-74
2023/08/10 09:05:17;;;;;;;3.00;0.88;;;31.60;26.20;;;;;;5091807;28;20097;-74
2023/08/10 09:07:43;;;;;;;3.67;1.35;;;32.20;25.40;;;;;;5091199;28;20024;-74
2023/08/10 09:10:09;;;;;;;1.10;0.70;;;32.00;25.70;;;;;;5092946;28;20038;-75
2023/08/10 09:12:40;;;;;;;3.15;1.13;;;32.30;24.90;;;;;;5092040;28;20024;-74
2023/08/10 09:15:16;;;;;;;0.60;0.60;;;32.30;25.30;;;;;;5089717;28;20127;-74
2023/08/10 09:17:52;;;;;;;1.67;0.60;;;32.60;27.60;;;;;;5069363;28;20156;-73
2023/08/10 09:20:28;;;;;;;1.33;0.70;;;33.00;25.40;;;;;;5071390;28;20028;-73
2023/08/10 09:22:56;;;;;;;3.80;0.95;;;33.00;22.90;;;;;;5070027;28;20150;-74
2023/08/10 09:25:22;;;;;;;1.10;1.00;;;32.20;25.10;;;;;;5071226;28;20040;-74
2023/08/10 09:27:49;;;;;;;2.63;1.17;;;32.00;24.40;;;;;;5070452;28;20476;-73
2023/08/10 09:30:16;;;;;;;1.45;1.05;;;32.10;25.50;;;;;;5071316;28;20082;-74
2023/08/10 09:32:42;;;;;;;4.03;1.17;;;32.30;25.90;;;;;;5070289;28;20059;-74
2023/08/10 09:35:18;;;;;;;1.77;0.85;;;32.00;23.80;;;;;;5071300;28;20048;-74
2023/08/10 09:37:46;;;;;;;1.30;0.95;;;31.90;25.30;;;;;;5070750;28;20726;-74
2023/08/10 09:40:16;;;;;;;2.78;0.63;;;31.90;24.60;;;;;;5070826;28;20029;-74
2023/08/10 09:42:42;;;;;;;;;;;32.20;26.40;;;;;;5071565;28;20021;-74
2023/08/10 09:45:13;;;;;;;2.40;1.40;;;32.00;26.00;;;;;;5069805;28;19940;-74
2023/08/10 09:47:40;;;;;;;3.42;1.20;;;31.80;26.80;;;;;;5070304;28;20016;-74
2023/08/10 09:50:11;;;;;;;2.63;1.30;;;;;;;;;;5069995;28;21245;-73
2023/08/10 09:52:38;;;;;;;2.50;1.00;;;;;;;;;;5070961;28;20029;-74
2023/08/10 09:55:05;;;;;;;1.73;0.90;;;;;;;;;;5070963;28;20396;-73
2023/08/10 09:57:31;;;;;;;0.82;0.75;;;;;;;;;;5070378;28;20024;-72
2023/08/10 09:59:57;;;;;;;3.00;1.33;;;;;;;;;;5089851;28;20034;-72
2023/08/10 10:02:24;;;;;;;2.10;1.27;;;;;;;;;;5089972;28;20031;-73
2023/08/10 10:04:50;;;;;;;3.03;0.88;;;;;;;;;;5075500;28;20031;-73
2023/08/10 10:07:27;;;;;;;4.63;1.23;;;;;;;;;;5070163;28;20024;-73
2023/08/10 10:09:56;;;;;;;1.63;0.90;;;;;;;;;;5069397;28;20040;-73
2023/08/10 10:12:22;;;;;;;2.47;1.00;;;;;;;;;;5069960;28;20058;-74
2023/08/10 10:14:48;;;;;;;3.13;1.20;;;;;;;;;;5070739;28;20446;-72
2023/08/10 10:17:16;;;;;;;1.27;0.85;;;;;;;;;;5070281;28;20035;-74
2023/08/10 10:19:42;;;;;;;3.15;1.35;;;;;;;;;;5070772;28;20549;-74
2023/08/10 10:22:09;;;;;;;3.05;1.15;;;;;;;;;;5077474;28;20031;-74
2023/08/10 10:24:35;;;;;;;5.45;1.80;;;;;;;;;;5090853;28;20020;-74
2023/08/10 10:27:08;;;;;;;2.53;1.27;;;;;;;;;;5090487;28;20025;-74
2023/08/10 10:29:37;;;;;;;6.13;2.03;;;;;;;;;;5090772;28;20028;-74
2023/08/10 10:32:06;;;;;;;1.88;1.20;;;;;;;;;;5090911;28;20048;-74
2023/08/10 10:34:33;;;;;;;3.10;1.17;;;;;;;;;;5090116;28;20502;-75
2023/08/10 10:37:18;;;;;;;2.38;1.17;;;;;;;;;;5090541;28;20528;-74
2023/08/10 10:39:53;;;;;;;2.42;1.10;;;;;;;;;;5090516;28;20523;-74
2023/08/10 10:42:20;;;;;;;2.10;1.23;;;;;;;;;;5090863;28;20032;-74
2023/08/10 10:45:03;;;;;;;2.25;1.30;;;;;;;;;;5090737;28;20084;-74
2023/08/10 10:47:35;;;;;;;3.58;1.48;;;;;;;;;;5090656;28;20023;-74
2023/08/10 10:50:01;;;;;;;2.30;1.10;;;;;;;;;;5090619;28;20466;-73
2023/08/10 10:52:36;;;;;;;10.25;1.67;;;;;;;;;;5093399;28;20028;-73
2023/08/10 10:55:03;;;;;;;3.75;1.27;;;;;;;;;;5094490;28;20024;-74
2023/08/10 10:57:31;;;;;;;1.90;1.38;;;;;;;;;;5092436;28;20475;-74
2023/08/10 10:59:58;;;;;;;3.15;1.40;;;;;;;;;;5094175;28;20024;-74
2023/08/10 11:02:24;;;;;;;2.90;1.10;;;;;;;;;;5094299;28;20475;-74
2023/08/10 11:04:52;;;;;;;6.97;1.10;;;;;;;;;;5094158;28;20044;-74
2023/08/10 11:07:18;;;;;;;3.08;1.30;;;;;;;;;;5093801;28;20027;-73
2023/08/10 11:09:44;;;;;;;2.40;1.30;;;;;;;;;;5093370;28;20028;-74
2023/08/10 11:12:11;;;;;;;2.85;1.13;;;;;;;;;;5094150;28;20024;-74
2023/08/10 11:14:39;;;;;;;1.80;1.05;;;;;;;;;;5093888;28;20024;-74
2023/08/10 11:17:05;;;;;;;3.90;1.42;;;;;;;;;;5092294;28;20020;-74
2023/08/10 11:19:33;;;;;;;2.05;1.40;;;;;;;;;;5093971;28;20601;-74
2023/08/10 11:21:59;;;;;;;3.15;1.42;;;;;;;;;;5093857;28;20432;-74
2023/08/10 11:24:28;;;;;;;4.35;1.83;;;;;;;;;;5094116;28;20031;-74
2023/08/10 11:26:57;;;;;;;3.03;1.20;;;;;;;;;;5094190;28;20024;-73
2023/08/10 11:29:23;;;;;;;2.13;1.60;;;;;;;;;;5096850;28;20032;-73
2023/08/10 11:31:49;;;;;;;2.17;1.50;;;;;;;;;;5094138;28;20027;-73
2023/08/10 11:34:20;;;;;;;3.38;1.92;;;;;;;;;;5093681;28;20035;-74
2023/08/10 11:36:47;;;;;;;1.45;1.35;;;;;;;;;;5093539;28;20119;-73
2023/08/10 11:39:13;;;;;;;2.00;1.30;;;;;;;;;;5093102;28;20142;-72
2023/08/10 11:41:40;;;;;;;3.97;1.30;;;;;;;;;;5093408;28;20056;-73
2023/08/10 11:44:06;;;;;;;1.98;1.48;;;;;;;;;;5092602;28;20024;-73
2023/08/10 11:46:32;;;;;;;3.75;1.83;;;;;;;;;;5093373;28;20498;-73
2023/08/10 11:48:58;;;;;;;3.05;1.52;;;;;;;;;;5093545;28;20134;-72
2023/08/10 11:51:31;;;;;;;2.08;1.50;;;;;;;;;;5093371;28;20028;-74
2023/08/10 11:53:57;;;;;;;3.72;1.60;;;;;;;;;;5093388;28;20025;-73
2023/08/10 11:56:23;;;;;;;3.63;1.58;;;;;;;;;;5093256;28;20027;-74
2023/08/10 11:58:49;;;;;;;3.85;1.50;;;;;;;;;;5092947;28;20073;-74
2023/08/10 12:01:18;;;;;;;3.22;1.30;;;;;;;;;;5093123;28;20487;-74
2023/08/10 12:03:51;;;;;;;4.50;1.50;;;;;;;;;;5092966;28;20103;-72
2023/08/10 12:06:18;;;;;;;1.60;1.50;;;;;;;;;;5093337;28;20387;-74
2023/08/10 12:08:44;;;;;;;2.50;1.65;;;;;;;;;;5092582;28;20016;-73
2023/08/10 12:11:14;;;;;;;1.55;1.33;;;;;;;;;;5074712;28;20093;-73
2023/08/10 12:13:46;;;;;;;3.45;1.35;;;;;;;;;;5092207;28;20027;-73
2023/08/10 12:16:13;;;;;;;2.08;1.77;;;;;;;;;;5093087;28;20025;-73
2023/08/10 12:18:39;;;;;;;3.55;1.50;;;;;;;;;;5092601;28;20028;-74
2023/08/10 12:21:05;;;;;;;3.78;1.67;;;;;;;;;;5092746;28;20040;-73
2023/08/10 12:23:31;;;;;;;3.03;1.50;;;;;;;;;;5091760;28;20460;-73
2023/08/10 12:25:57;;;;;;;7.18;1.70;;;;;;;;;;5092733;28;20024;-73
2023/08/10 12:28:23;;;;;;;2.72;1.45;;;;;;;;;;5091917;28;20028;-73
2023/08/10 12:30:50;;;;;;;2.35;1.73;;;;;;;;;;5090941;28;20024;-74
2023/08/10 12:33:16;;;;;;;2.47;1.55;;;;;;;;;;5092695;28;20042;-74
2023/08/10 12:35:43;;;;;;;2.90;1.65;;;;;;;;;;5092395;28;20016;-73
2023/08/10 12:38:10;;;;;;;3.53;1.58;;;;;;;;;;5091963;28;20762;-74
2023/08/10 12:40:36;;;;;;;4.03;1.40;;;;;;;;;;5090836;28;20086;-73
2023/08/10 12:43:03;;;;;;;2.15;1.23;;;;;;;;;;5092216;28;20024;-73
2023/08/10 12:45:29;;;;;;;3.80;1.48;;;;;;;;;;5092233;28;20028;-73
2023/08/10 12:47:55;;;;;;;4.25;1.60;;;;;;;;;;5090910;28;20036;-73
2023/08/10 12:50:22;;;;;;;2.67;1.63;;;;;;;;;;5091955;28;20551;-73
2023/08/10 12:52:49;;;;;;;3.20;1.60;;;;;;;;;;5087056;28;20388;-74
2023/08/10 12:55:15;;;;;;;3.85;1.70;;;;;;;;;;5071871;28;20111;-73
2023/08/10 12:57:41;;;;;;;1.27;1.17;;;;;;;;;;5071086;28;20024;-73
2023/08/10 13:00:09;;;;;;;3.83;1.50;;;;;;;;;;5072004;28;20089;-73
2023/08/10 13:02:35;;;;;;;1.27;1.10;;;;;;;;;;5071466;28;20028;-74
2023/08/10 13:05:01;;;;;;;2.60;2.05;;;;;;;;;;5071774;28;20024;-73
2023/08/10 13:07:27;;;;;;;2.30;1.60;;;;;;;;;;5069389;28;20383;-71
2023/08/10 13:09:53;;;;;;;1.90;1.73;;;;;;;;;;5071395;28;20059;-73
2023/08/10 13:12:19;;;;;;;4.45;1.48;;;;;;;;;;5070148;28;20012;-73
2023/08/10 13:14:45;;;;;;;4.22;1.80;;;;;;;;;;5069564;28;20047;-73
2023/08/10 13:17:11;;;;;;;1.40;1.30;;;;;;;;;;5070880;28;20786;-74
2023/08/10 13:19:38;;;;;;;3.28;1.58;;;;;;;;;;5070846;28;20020;-74
2023/08/10 13:22:07;;;;;;;2.10;1.45;;;;;;;;;;5071433;28;20052;-73
2023/08/10 13:24:37;;;;;;;3.15;1.42;;;;;;;;;;5071228;28;20056;-74
2023/08/10 13:27:03;;;;;;;2.30;1.52;;;;;;;;;;5069528;28;20020;-73
2023/08/10 13:29:29;;;;;;;3.60;1.70;;;;;;;;;;5069772;28;20017;-73
2023/08/10 13:31:56;;;;;;;2.03;1.65;;;;;;;;;;5069902;28;20418;-73
2023/08/10 13:34:22;;;;;;;3.47;2.10;;;;;;;;;;5069686;28;20115;-74
2023/08/10 13:36:48;;;;;;;2.08;1.75;;;;;;;;;;5071125;28;20025;-73
2023/08/10 13:39:14;;;;;;;2.35;1.70;;;;;;;;;;5071082;28;20032;-74
2023/08/10 13:41:40;;;;;;;4.55;1.58;;;;;;;;;;5071585;28;20081;-74
2023/08/10 13:44:06;;;;;;;3.15;1.77;;;;;;;;;;5071023;28;20511;-74
2023/08/10 13:46:32;;;;;;;4.90;1.80;;;;;;;;;;5070661;28;20020;-74
2023/08/10 13:48:58;;;;;;;6.50;2.00;;;;;;;;;;5069493;28;20028;-73
2023/08/10 13:51:25;;;;;;;1.73;1.30;;;;;;;;;;5088286;28;20027;-74
2023/08/10 13:53:51;;;;;;;4.38;1.70;;;;;;;;;;5091307;28;20035;-74
2023/08/10 13:56:17;;;;;;;2.00;1.63;;;;;;;;;;5091162;28;20024;-74
2023/08/10 13:58:43;;;;;;;4.63;1.88;;;;;;;;;;5090569;28;20388;-73
2023/08/10 14:01:10;;;;;;;2.63;1.92;;;;;;;;;;5090850;28;20020;-73
2023/08/10 14:03:37;;;;;;;4.88;1.83;;;;;;;;;;5089451;28;20030;-74
2023/08/10 14:06:09;;;;;;;3.45;1.63;;;;;;;;;;5091356;28;20106;-74
2023/08/10 14:08:35;;;;;;;3.53;2.15;;;;;;;;;;5089352;28;20035;-73
2023/08/10 14:11:01;;;;;;;3.75;1.85;;;;;;;;;;5091545;28;20047;-73
2023/08/10 14:13:27;;;;;;;4.38;1.73;;;;;;;;;;5089723;28;20028;-74
2023/08/10 14:15:53;;;;;;;4.47;2.15;;;;;;;;;;5090885;28;20541;-74
2023/08/10 14:18:19;;;;;;;4.25;1.65;;;;;;;;;;5090185;28;20020;-73
2023/08/10 14:20:45;;;;;;;1.80;1.67;;;;;;;;;;5089478;28;20032;-73
2023/08/10 14:23:11;;;;;;;1.88;1.70;;;;;;;;;;5089341;28;20103;-74
2023/08/10 14:25:37;;;;;;;4.32;1.83;;;;;;;;;;5092598;28;20119;-73
2023/08/10 14:28:04;;;;;;;1.98;1.65;;;;;;;;;;5094145;28;20024;-73